sensor_id;sensor_type;location;lat;lon;timestamp;temperature;humidity
19033;DHT22;9649;51.042;13.804;2023-07-31T00:03:07;15.80;1.00
19033;DHT22;9649;51.042;13.804;2023-07-31T00:08:11;15.50;1.00
19033;DHT22;9649;51.042;13.804;2023-07-31T00:13:14;15.20;1.00
19033;DHT22;9649;51.042;13.804;2023-07-31T00:18:17;15.20;1.00
19033;DHT22;9649;51.042;13.804;2023-07-31T00:23:21;15.50;1.00
19033;DHT22;9649;51.042;13.804;2023-07-31T00:28:24;15.70;1.00
19033;DHT22;9649;51.042;13.804;2023-07-31T00:33:26;16.00;1.00
19033;DHT22;9649;51.042;13.804;2023-07-31T00:38:31;15.80;1.00
19033;DHT22;9649;51.042;13.804;2023-07-31T00:43:33;15.90;99.90
19033;DHT22;9649;51.042;13.804;2023-07-31T00:48:37;15.90;1.00
19033;DHT22;9649;51.042;13.804;2023-07-31T00:53:42;16.10;1.00
19033;DHT22;9649;51.042;13.804;2023-07-31T00:58:45;16.10;1.00
19033;DHT22;9649;51.042;13.804;2023-07-31T01:03:49;16.10;1.00
19033;DHT22;9649;51.042;13.804;2023-07-31T01:08:58;16.00;92.70
19033;DHT22;9649;51.042;13.804;2023-07-31T01:14:04;15.90;1.00
19033;DHT22;9649;51.042;13.804;2023-07-31T01:19:08;15.90;99.90
19033;DHT22;9649;51.042;13.804;2023-07-31T01:24:21;15.80;99.90
19033;DHT22;9649;51.042;13.804;2023-07-31T01:29:41;15.80;99.90
19033;DHT22;9649;51.042;13.804;2023-07-31T01:35:00;15.80;1.00
19033;DHT22;9649;51.042;13.804;2023-07-31T01:40:20;15.80;1.00
19033;DHT22;9649;51.042;13.804;2023-07-31T01:45:25;16.00;99.90
19033;DHT22;9649;51.042;13.804;2023-07-31T01:50:28;16.20;78.70
19033;DHT22;9649;51.042;13.804;2023-07-31T01:55:32;16.30;1.80
19033;DHT22;9649;51.042;13.804;2023-07-31T02:00:36;16.40;1.00
19033;DHT22;9649;51.042;13.804;2023-07-31T02:05:44;16.20;99.90
19033;DHT22;9649;51.042;13.804;2023-07-31T02:10:47;16.30;1.00
19033;DHT22;9649;51.042;13.804;2023-07-31T02:15:52;16.60;1.00
19033;DHT22;9649;51.042;13.804;2023-07-31T02:20:55;16.70;99.90
19033;DHT22;9649;51.042;13.804;2023-07-31T02:25:59;16.90;1.00
19033;DHT22;9649;51.042;13.804;2023-07-31T02:31:04;16.90;79.90
19033;DHT22;9649;51.042;13.804;2023-07-31T02:36:08;17.20;1.00
19033;DHT22;9649;51.042;13.804;2023-07-31T02:41:11;17.20;1.00
19033;DHT22;9649;51.042;13.804;2023-07-31T02:46:16;17.10;1.00
19033;DHT22;9649;51.042;13.804;2023-07-31T02:51:19;17.20;1.00
19033;DHT22;9649;51.042;13.804;2023-07-31T02:56:23;17.10;1.00
19033;DHT22;9649;51.042;13.804;2023-07-31T03:01:28;16.90;1.00
19033;DHT22;9649;51.042;13.804;2023-07-31T03:06:32;16.80;1.00
19033;DHT22;9649;51.042;13.804;2023-07-31T03:11:36;16.80;1.00
19033;DHT22;9649;51.042;13.804;2023-07-31T03:16:41;17.00;99.90
19033;DHT22;9649;51.042;13.804;2023-07-31T03:21:48;17.20;99.90
19033;DHT22;9649;51.042;13.804;2023-07-31T03:26:52;17.30;99.90
19033;DHT22;9649;51.042;13.804;2023-07-31T03:31:57;17.40;1.00
19033;DHT22;9649;51.042;13.804;2023-07-31T03:37:03;17.60;1.00
19033;DHT22;9649;51.042;13.804;2023-07-31T03:42:08;17.50;1.00
19033;DHT22;9649;51.042;13.804;2023-07-31T03:47:13;17.50;99.90
19033;DHT22;9649;51.042;13.804;2023-07-31T03:52:17;17.90;99.90
19033;DHT22;9649;51.042;13.804;2023-07-31T03:57:21;17.90;1.00
19033;DHT22;9649;51.042;13.804;2023-07-31T04:02:26;17.70;1.00
19033;DHT22;9649;51.042;13.804;2023-07-31T04:07:34;17.70;99.90
19033;DHT22;9649;51.042;13.804;2023-07-31T04:12:38;17.60;1.00
19033;DHT22;9649;51.042;13.804;2023-07-31T04:17:45;17.50;99.90
19033;DHT22;9649;51.042;13.804;2023-07-31T04:22:48;17.40;44.20
19033;DHT22;9649;51.042;13.804;2023-07-31T04:27:53;17.20;1.00
19033;DHT22;9649;51.042;13.804;2023-07-31T04:32:58;16.90;98.20
19033;DHT22;9649;51.042;13.804;2023-07-31T04:38:01;16.70;1.00
19033;DHT22;9649;51.042;13.804;2023-07-31T04:43:05;16.50;1.00
19033;DHT22;9649;51.042;13.804;2023-07-31T04:48:11;16.50;1.00
19033;DHT22;9649;51.042;13.804;2023-07-31T04:53:14;16.50;1.00
19033;DHT22;9649;51.042;13.804;2023-07-31T04:58:17;16.60;1.00
19033;DHT22;9649;51.042;13.804;2023-07-31T05:03:25;16.70;1.00
19033;DHT22;9649;51.042;13.804;2023-07-31T05:08:28;16.70;1.00
19033;DHT22;9649;51.042;13.804;2023-07-31T05:13:35;16.70;1.00
19033;DHT22;9649;51.042;13.804;2023-07-31T05:18:40;17.00;1.00
19033;DHT22;9649;51.042;13.804;2023-07-31T05:23:44;17.20;99.90
19033;DHT22;9649;51.042;13.804;2023-07-31T05:28:47;17.30;99.90
19033;DHT22;9649;51.042;13.804;2023-07-31T05:33:52;17.30;1.00
19033;DHT22;9649;51.042;13.804;2023-07-31T05:38:55;17.30;99.90
19033;DHT22;9649;51.042;13.804;2023-07-31T05:44:00;17.50;1.00
19033;DHT22;9649;51.042;13.804;2023-07-31T05:49:06;17.60;1.00
19033;DHT22;9649;51.042;13.804;2023-07-31T05:54:10;17.70;99.90
19033;DHT22;9649;51.042;13.804;2023-07-31T05:59:16;17.70;1.00
19033;DHT22;9649;51.042;13.804;2023-07-31T06:04:22;17.80;1.00
19033;DHT22;9649;51.042;13.804;2023-07-31T06:09:27;17.80;1.00
19033;DHT22;9649;51.042;13.804;2023-07-31T06:14:31;17.80;80.00
19033;DHT22;9649;51.042;13.804;2023-07-31T06:19:37;17.80;1.00
19033;DHT22;9649;51.042;13.804;2023-07-31T06:24:40;18.00;1.00
19033;DHT22;9649;51.042;13.804;2023-07-31T06:29:44;18.20;99.90
19033;DHT22;9649;51.042;13.804;2023-07-31T06:34:49;18.40;1.00
19033;DHT22;9649;51.042;13.804;2023-07-31T06:39:53;18.50;1.00
19033;DHT22;9649;51.042;13.804;2023-07-31T06:44:57;18.60;99.90
19033;DHT22;9649;51.042;13.804;2023-07-31T06:50:03;18.60;1.00
19033;DHT22;9649;51.042;13.804;2023-07-31T06:55:19;18.50;1.00
19033;DHT22;9649;51.042;13.804;2023-07-31T07:00:24;18.50;1.00
19033;DHT22;9649;51.042;13.804;2023-07-31T07:05:30;18.60;1.00
19033;DHT22;9649;51.042;13.804;2023-07-31T07:10:36;18.80;1.00
19033;DHT22;9649;51.042;13.804;2023-07-31T07:15:41;19.10;1.00
19033;DHT22;9649;51.042;13.804;2023-07-31T07:20:52;19.30;99.90
19033;DHT22;9649;51.042;13.804;2023-07-31T07:25:56;19.40;99.90
19033;DHT22;9649;51.042;13.804;2023-07-31T07:31:01;19.60;99.90
19033;DHT22;9649;51.042;13.804;2023-07-31T07:36:07;19.90;1.00
19033;DHT22;9649;51.042;13.804;2023-07-31T07:41:12;20.40;99.90
19033;DHT22;9649;51.042;13.804;2023-07-31T07:46:16;20.50;99.90
19033;DHT22;9649;51.042;13.804;2023-07-31T07:51:22;20.30;99.90
19033;DHT22;9649;51.042;13.804;2023-07-31T07:56:26;20.30;99.90
19033;DHT22;9649;51.042;13.804;2023-07-31T08:01:31;20.10;99.90
19033;DHT22;9649;51.042;13.804;2023-07-31T08:06:40;20.00;99.90
19033;DHT22;9649;51.042;13.804;2023-07-31T08:12:23;20.30;99.90
19033;DHT22;9649;51.042;13.804;2023-07-31T08:18:44;20.60;1.00
19033;DHT22;9649;51.042;13.804;2023-07-31T08:24:22;21.30;1.00
19033;DHT22;9649;51.042;13.804;2023-07-31T08:29:25;21.90;99.90
19033;DHT22;9649;51.042;13.804;2023-07-31T08:34:28;21.80;99.90
19033;DHT22;9649;51.042;13.804;2023-07-31T08:39:33;21.80;99.90
19033;DHT22;9649;51.042;13.804;2023-07-31T08:44:36;21.90;99.90
19033;DHT22;9649;51.042;13.804;2023-07-31T08:49:41;21.80;99.90
19033;DHT22;9649;51.042;13.804;2023-07-31T08:54:49;21.60;99.90
19033;DHT22;9649;51.042;13.804;2023-07-31T08:59:52;21.30;1.00
19033;DHT22;9649;51.042;13.804;2023-07-31T09:04:55;21.00;1.00
19033;DHT22;9649;51.042;13.804;2023-07-31T09:09:59;20.90;1.00
19033;DHT22;9649;51.042;13.804;2023-07-31T09:15:05;20.90;1.00
19033;DHT22;9649;51.042;13.804;2023-07-31T09:20:15;20.80;1.00
19033;DHT22;9649;51.042;13.804;2023-07-31T09:25:25;20.90;1.00
19033;DHT22;9649;51.042;13.804;2023-07-31T09:30:28;20.90;1.00
19033;DHT22;9649;51.042;13.804;2023-07-31T09:35:32;20.90;1.00
19033;DHT22;9649;51.042;13.804;2023-07-31T09:40:38;20.90;1.00
19033;DHT22;9649;51.042;13.804;2023-07-31T09:45:43;21.10;99.90
19033;DHT22;9649;51.042;13.804;2023-07-31T09:50:47;21.20;99.90
19033;DHT22;9649;51.042;13.804;2023-07-31T09:55:52;21.20;99.90
19033;DHT22;9649;51.042;13.804;2023-07-31T10:00:57;21.30;99.90
19033;DHT22;9649;51.042;13.804;2023-07-31T10:06:02;21.40;99.90
19033;DHT22;9649;51.042;13.804;2023-07-31T10:11:08;21.60;99.90
19033;DHT22;9649;51.042;13.804;2023-07-31T10:16:12;21.60;99.90
19033;DHT22;9649;51.042;13.804;2023-07-31T10:21:16;21.60;99.90
19033;DHT22;9649;51.042;13.804;2023-07-31T10:26:23;21.30;99.90
19033;DHT22;9649;51.042;13.804;2023-07-31T10:31:28;21.40;99.90
19033;DHT22;9649;51.042;13.804;2023-07-31T10:36:31;21.70;99.90
19033;DHT22;9649;51.042;13.804;2023-07-31T10:41:36;21.90;99.90
19033;DHT22;9649;51.042;13.804;2023-07-31T10:46:39;22.00;81.40
19033;DHT22;9649;51.042;13.804;2023-07-31T10:51:42;22.50;17.80
19033;DHT22;9649;51.042;13.804;2023-07-31T10:56:46;23.00;1.00
19033;DHT22;9649;51.042;13.804;2023-07-31T11:01:56;23.20;1.00
19033;DHT22;9649;51.042;13.804;2023-07-31T11:07:01;23.00;1.00
19033;DHT22;9649;51.042;13.804;2023-07-31T11:12:07;22.90;1.00
19033;DHT22;9649;51.042;13.804;2023-07-31T11:17:11;23.20;1.00
19033;DHT22;9649;51.042;13.804;2023-07-31T11:22:14;23.40;1.00
19033;DHT22;9649;51.042;13.804;2023-07-31T11:27:19;23.70;1.00
19033;DHT22;9649;51.042;13.804;2023-07-31T11:32:23;23.40;1.00
19033;DHT22;9649;51.042;13.804;2023-07-31T11:37:38;23.10;1.00
19033;DHT22;9649;51.042;13.804;2023-07-31T11:42:43;22.50;99.90
19033;DHT22;9649;51.042;13.804;2023-07-31T11:47:49;22.70;99.90
19033;DHT22;9649;51.042;13.804;2023-07-31T11:52:56;23.60;1.00
19033;DHT22;9649;51.042;13.804;2023-07-31T11:58:01;24.10;1.00
19033;DHT22;9649;51.042;13.804;2023-07-31T12:03:04;24.90;1.00
19033;DHT22;9649;51.042;13.804;2023-07-31T12:08:11;25.50;1.00
19033;DHT22;9649;51.042;13.804;2023-07-31T12:13:22;25.70;1.00
19033;DHT22;9649;51.042;13.804;2023-07-31T12:18:26;25.50;1.00
19033;DHT22;9649;51.042;13.804;2023-07-31T12:23:31;25.50;1.00
19033;DHT22;9649;51.042;13.804;2023-07-31T12:28:37;25.60;1.00
19033;DHT22;9649;51.042;13.804;2023-07-31T12:33:41;25.60;1.00
19033;DHT22;9649;51.042;13.804;2023-07-31T12:38:44;25.40;1.00
19033;DHT22;9649;51.042;13.804;2023-07-31T12:43:49;26.40;1.00
19033;DHT22;9649;51.042;13.804;2023-07-31T12:48:51;27.50;1.00
19033;DHT22;9649;51.042;13.804;2023-07-31T12:53:54;26.40;1.00
19033;DHT22;9649;51.042;13.804;2023-07-31T12:58:58;26.60;1.00
19033;DHT22;9649;51.042;13.804;2023-07-31T13:04:01;26.00;1.00
19033;DHT22;9649;51.042;13.804;2023-07-31T13:09:04;25.50;1.00
19033;DHT22;9649;51.042;13.804;2023-07-31T13:14:08;25.80;1.00
19033;DHT22;9649;51.042;13.804;2023-07-31T13:19:12;25.80;1.00
19033;DHT22;9649;51.042;13.804;2023-07-31T13:24:15;25.70;1.00
19033;DHT22;9649;51.042;13.804;2023-07-31T13:29:19;25.20;1.00
19033;DHT22;9649;51.042;13.804;2023-07-31T13:34:23;25.00;1.00
19033;DHT22;9649;51.042;13.804;2023-07-31T13:39:26;24.70;1.00
19033;DHT22;9649;51.042;13.804;2023-07-31T13:44:30;24.70;1.00
19033;DHT22;9649;51.042;13.804;2023-07-31T13:49:33;25.10;1.00
19033;DHT22;9649;51.042;13.804;2023-07-31T13:54:36;26.00;1.00
19033;DHT22;9649;51.042;13.804;2023-07-31T13:59:40;26.30;1.00
19033;DHT22;9649;51.042;13.804;2023-07-31T14:04:43;26.80;1.00
19033;DHT22;9649;51.042;13.804;2023-07-31T14:09:46;26.90;99.90
19033;DHT22;9649;51.042;13.804;2023-07-31T14:14:50;27.10;99.90
19033;DHT22;9649;51.042;13.804;2023-07-31T14:19:53;27.40;99.90
19033;DHT22;9649;51.042;13.804;2023-07-31T14:25:03;27.10;99.90
19033;DHT22;9649;51.042;13.804;2023-07-31T14:30:08;26.30;99.90
19033;DHT22;9649;51.042;13.804;2023-07-31T14:35:11;26.00;99.90
19033;DHT22;9649;51.042;13.804;2023-07-31T14:40:14;26.90;99.90
19033;DHT22;9649;51.042;13.804;2023-07-31T14:45:19;28.60;99.90
19033;DHT22;9649;51.042;13.804;2023-07-31T14:50:22;26.70;99.90
19033;DHT22;9649;51.042;13.804;2023-07-31T14:55:25;26.00;99.90
19033;DHT22;9649;51.042;13.804;2023-07-31T15:00:29;26.20;99.90
19033;DHT22;9649;51.042;13.804;2023-07-31T15:05:32;27.00;99.90
19033;DHT22;9649;51.042;13.804;2023-07-31T15:10:35;28.40;99.90
19033;DHT22;9649;51.042;13.804;2023-07-31T15:15:39;27.30;99.90
19033;DHT22;9649;51.042;13.804;2023-07-31T15:20:42;25.90;99.90
19033;DHT22;9649;51.042;13.804;2023-07-31T15:25:45;25.00;99.90
19033;DHT22;9649;51.042;13.804;2023-07-31T15:30:49;24.80;1.00
19033;DHT22;9649;51.042;13.804;2023-07-31T15:35:52;24.80;1.00
19033;DHT22;9649;51.042;13.804;2023-07-31T15:40:57;24.60;1.00
19033;DHT22;9649;51.042;13.804;2023-07-31T15:46:01;24.30;1.00
19033;DHT22;9649;51.042;13.804;2023-07-31T15:51:04;24.20;1.00
19033;DHT22;9649;51.042;13.804;2023-07-31T15:56:07;24.20;1.00
19033;DHT22;9649;51.042;13.804;2023-07-31T16:01:11;24.10;1.00
19033;DHT22;9649;51.042;13.804;2023-07-31T16:06:14;24.20;1.00
19033;DHT22;9649;51.042;13.804;2023-07-31T16:11:17;24.10;1.00
19033;DHT22;9649;51.042;13.804;2023-07-31T16:16:21;23.80;1.00
19033;DHT22;9649;51.042;13.804;2023-07-31T16:21:25;23.60;1.00
19033;DHT22;9649;51.042;13.804;2023-07-31T16:26:28;23.60;1.00
19033;DHT22;9649;51.042;13.804;2023-07-31T16:31:32;23.70;1.00
19033;DHT22;9649;51.042;13.804;2023-07-31T16:36:55;23.60;1.00
19033;DHT22;9649;51.042;13.804;2023-07-31T16:41:58;23.40;1.00
19033;DHT22;9649;51.042;13.804;2023-07-31T16:47:02;23.40;1.00
19033;DHT22;9649;51.042;13.804;2023-07-31T16:52:05;23.30;1.00
19033;DHT22;9649;51.042;13.804;2023-07-31T16:57:08;23.30;1.00
19033;DHT22;9649;51.042;13.804;2023-07-31T17:02:13;23.20;1.00
19033;DHT22;9649;51.042;13.804;2023-07-31T17:07:16;23.20;1.00
19033;DHT22;9649;51.042;13.804;2023-07-31T17:12:19;23.20;1.00
19033;DHT22;9649;51.042;13.804;2023-07-31T17:17:23;23.00;1.00
19033;DHT22;9649;51.042;13.804;2023-07-31T17:22:27;23.00;1.00
19033;DHT22;9649;51.042;13.804;2023-07-31T17:27:48;22.90;1.00
19033;DHT22;9649;51.042;13.804;2023-07-31T17:32:55;22.70;1.00
19033;DHT22;9649;51.042;13.804;2023-07-31T17:37:58;22.80;1.00
19033;DHT22;9649;51.042;13.804;2023-07-31T17:43:01;22.90;1.00
19033;DHT22;9649;51.042;13.804;2023-07-31T17:48:05;22.90;1.00
19033;DHT22;9649;51.042;13.804;2023-07-31T17:53:10;22.90;1.00
19033;DHT22;9649;51.042;13.804;2023-07-31T17:58:13;22.90;1.00
19033;DHT22;9649;51.042;13.804;2023-07-31T18:03:17;23.00;1.00
19033;DHT22;9649;51.042;13.804;2023-07-31T18:08:20;22.90;1.00
19033;DHT22;9649;51.042;13.804;2023-07-31T18:13:23;22.80;1.00
19033;DHT22;9649;51.042;13.804;2023-07-31T18:18:27;22.60;1.00
19033;DHT22;9649;51.042;13.804;2023-07-31T18:23:32;22.60;1.00
19033;DHT22;9649;51.042;13.804;2023-07-31T18:28:35;22.40;1.00
19033;DHT22;9649;51.042;13.804;2023-07-31T18:33:39;22.40;1.00
19033;DHT22;9649;51.042;13.804;2023-07-31T18:38:43;22.40;1.00
19033;DHT22;9649;51.042;13.804;2023-07-31T18:43:46;22.40;1.00
19033;DHT22;9649;51.042;13.804;2023-07-31T18:48:50;22.30;1.00
19033;DHT22;9649;51.042;13.804;2023-07-31T18:53:54;22.30;1.00
19033;DHT22;9649;51.042;13.804;2023-07-31T18:58:57;22.20;1.00
19033;DHT22;9649;51.042;13.804;2023-07-31T19:04:05;22.20;1.00
19033;DHT22;9649;51.042;13.804;2023-07-31T19:09:11;22.10;1.00
19033;DHT22;9649;51.042;13.804;2023-07-31T19:14:15;22.20;1.00
19033;DHT22;9649;51.042;13.804;2023-07-31T19:19:25;22.10;1.00
19033;DHT22;9649;51.042;13.804;2023-07-31T19:24:29;22.00;1.00
19033;DHT22;9649;51.042;13.804;2023-07-31T19:29:36;21.90;1.00
19033;DHT22;9649;51.042;13.804;2023-07-31T19:34:43;22.00;1.00
19033;DHT22;9649;51.042;13.804;2023-07-31T19:39:48;22.00;1.00
19033;DHT22;9649;51.042;13.804;2023-07-31T19:44:54;21.90;1.00
19033;DHT22;9649;51.042;13.804;2023-07-31T19:49:59;21.90;1.00
19033;DHT22;9649;51.042;13.804;2023-07-31T19:55:06;21.80;2.20
19033;DHT22;9649;51.042;13.804;2023-07-31T20:00:09;21.80;10.80
19033;DHT22;9649;51.042;13.804;2023-07-31T20:05:14;21.70;47.00
19033;DHT22;9649;51.042;13.804;2023-07-31T20:10:18;21.60;99.90
19033;DHT22;9649;51.042;13.804;2023-07-31T20:15:22;21.50;99.90
19033;DHT22;9649;51.042;13.804;2023-07-31T20:20:31;21.40;99.90
19033;DHT22;9649;51.042;13.804;2023-07-31T20:25:40;21.30;99.90
19033;DHT22;9649;51.042;13.804;2023-07-31T20:30:47;21.10;1.00
19033;DHT22;9649;51.042;13.804;2023-07-31T20:35:52;21.00;1.00
19033;DHT22;9649;51.042;13.804;2023-07-31T20:40:59;20.90;1.00
19033;DHT22;9649;51.042;13.804;2023-07-31T20:46:03;20.80;1.00
19033;DHT22;9649;51.042;13.804;2023-07-31T21:26:32;20.70;1.00
19033;DHT22;9649;51.042;13.804;2023-07-31T21:32:02;20.70;1.00
19033;DHT22;9649;51.042;13.804;2023-07-31T21:37:21;20.60;1.00
19033;DHT22;9649;51.042;13.804;2023-07-31T21:42:25;20.60;1.00
19033;DHT22;9649;51.042;13.804;2023-07-31T21:47:28;20.50;1.00
19033;DHT22;9649;51.042;13.804;2023-07-31T21:52:31;20.40;1.00
19033;DHT22;9649;51.042;13.804;2023-07-31T21:57:35;20.30;74.00
19033;DHT22;9649;51.042;13.804;2023-07-31T22:02:38;20.30;99.90
19033;DHT22;9649;51.042;13.804;2023-07-31T22:07:41;20.30;99.90
19033;DHT22;9649;51.042;13.804;2023-07-31T22:12:45;20.30;6.10
19033;DHT22;9649;51.042;13.804;2023-07-31T22:17:48;20.40;1.00
19033;DHT22;9649;51.042;13.804;2023-07-31T22:22:51;20.60;1.00
19033;DHT22;9649;51.042;13.804;2023-07-31T22:27:56;20.60;1.00
19033;DHT22;9649;51.042;13.804;2023-07-31T22:33:15;20.60;1.00
19033;DHT22;9649;51.042;13.804;2023-07-31T22:38:19;20.70;1.00
19033;DHT22;9649;51.042;13.804;2023-07-31T22:43:23;20.60;1.00
19033;DHT22;9649;51.042;13.804;2023-07-31T22:48:26;20.80;1.00
19033;DHT22;9649;51.042;13.804;2023-07-31T22:53:29;20.70;1.00
19033;DHT22;9649;51.042;13.804;2023-07-31T22:58:35;20.90;1.00
19033;DHT22;9649;51.042;13.804;2023-07-31T23:03:38;20.40;1.00
19033;DHT22;9649;51.042;13.804;2023-07-31T23:08:41;19.60;99.90
19033;DHT22;9649;51.042;13.804;2023-07-31T23:13:45;19.30;99.90
19033;DHT22;9649;51.042;13.804;2023-07-31T23:18:48;19.40;1.00
19033;DHT22;9649;51.042;13.804;2023-07-31T23:23:51;19.30;1.00
19033;DHT22;9649;51.042;13.804;2023-07-31T23:28:55;19.60;1.00
19033;DHT22;9649;51.042;13.804;2023-07-31T23:33:59;19.60;1.00
19033;DHT22;9649;51.042;13.804;2023-07-31T23:39:03;19.80;99.90
19033;DHT22;9649;51.042;13.804;2023-07-31T23:44:07;19.70;99.90
19033;DHT22;9649;51.042;13.804;2023-07-31T23:49:10;19.50;1.00
19033;DHT22;9649;51.042;13.804;2023-07-31T23:54:13;19.30;46.20
19033;DHT22;9649;51.042;13.804;2023-07-31T23:59:17;19.40;58.70
